sensor_id;sensor_type;location;lat;lon;timestamp;P1;durP1;ratioP1;P2;durP2;ratioP2
32964;SDS011;19317;48.226;11.686;2023-02-12T00:03:55;18.77;;;11.97;;
32964;SDS011;19317;48.226;11.686;2023-02-12T00:08:48;16.67;;;12.17;;
32964;SDS011;19317;48.226;11.686;2023-02-12T00:13:39;18.90;;;12.00;;
32964;SDS011;19317;48.226;11.686;2023-02-12T00:18:30;18.80;;;12.03;;
32964;SDS011;19317;48.226;11.686;2023-02-12T00:23:21;15.97;;;11.93;;
32964;SDS011;19317;48.226;11.686;2023-02-12T00:28:11;22.70;;;11.87;;
32964;SDS011;19317;48.226;11.686;2023-02-12T00:33:02;15.30;;;11.53;;
32964;SDS011;19317;48.226;11.686;2023-02-12T00:37:52;18.07;;;12.27;;
32964;SDS011;19317;48.226;11.686;2023-02-12T00:42:43;19.17;;;12.73;;
32964;SDS011;19317;48.226;11.686;2023-02-12T00:47:33;17.10;;;10.73;;
32964;SDS011;19317;48.226;11.686;2023-02-12T00:52:24;24.73;;;13.53;;
32964;SDS011;19317;48.226;11.686;2023-02-12T00:57:14;18.87;;;11.57;;
32964;SDS011;19317;48.226;11.686;2023-02-12T01:02:05;19.23;;;12.00;;
32964;SDS011;19317;48.226;11.686;2023-02-12T01:06:55;19.30;;;12.47;;
32964;SDS011;19317;48.226;11.686;2023-02-12T01:11:46;20.63;;;12.50;;
32964;SDS011;19317;48.226;11.686;2023-02-12T01:16:36;18.23;;;12.13;;
32964;SDS011;19317;48.226;11.686;2023-02-12T01:21:27;22.57;;;13.37;;
32964;SDS011;19317;48.226;11.686;2023-02-12T01:26:20;22.33;;;14.00;;
32964;SDS011;19317;48.226;11.686;2023-02-12T01:31:12;21.37;;;13.10;;
32964;SDS011;19317;48.226;11.686;2023-02-12T01:36:08;20.17;;;12.27;;
32964;SDS011;19317;48.226;11.686;2023-02-12T01:41:04;20.63;;;13.43;;
32964;SDS011;19317;48.226;11.686;2023-02-12T01:45:59;21.07;;;13.50;;
32964;SDS011;19317;48.226;11.686;2023-02-12T01:50:51;18.50;;;12.53;;
32964;SDS011;19317;48.226;11.686;2023-02-12T01:55:43;21.80;;;13.37;;
32964;SDS011;19317;48.226;11.686;2023-02-12T02:00:33;20.20;;;12.67;;
32964;SDS011;19317;48.226;11.686;2023-02-12T02:05:27;23.83;;;12.83;;
32964;SDS011;19317;48.226;11.686;2023-02-12T02:10:28;22.27;;;14.40;;
32964;SDS011;19317;48.226;11.686;2023-02-12T02:15:19;20.80;;;13.80;;
32964;SDS011;19317;48.226;11.686;2023-02-12T02:20:23;23.47;;;12.40;;
32964;SDS011;19317;48.226;11.686;2023-02-12T02:30:54;20.23;;;13.27;;
32964;SDS011;19317;48.226;11.686;2023-02-12T02:36:05;17.93;;;12.20;;
32964;SDS011;19317;48.226;11.686;2023-02-12T02:41:14;23.83;;;14.00;;
32964;SDS011;19317;48.226;11.686;2023-02-12T02:46:11;19.80;;;13.13;;
32964;SDS011;19317;48.226;11.686;2023-02-12T02:51:08;22.50;;;14.10;;
32964;SDS011;19317;48.226;11.686;2023-02-12T02:56:06;20.80;;;13.73;;
32964;SDS011;19317;48.226;11.686;2023-02-12T03:01:05;22.90;;;13.47;;
32964;SDS011;19317;48.226;11.686;2023-02-12T03:06:09;20.37;;;13.37;;
32964;SDS011;19317;48.226;11.686;2023-02-12T03:16:15;20.77;;;13.23;;
32964;SDS011;19317;48.226;11.686;2023-02-12T03:21:11;21.03;;;14.40;;
32964;SDS011;19317;48.226;11.686;2023-02-12T03:26:07;21.60;;;13.33;;
32964;SDS011;19317;48.226;11.686;2023-02-12T03:31:06;21.67;;;13.80;;
32964;SDS011;19317;48.226;11.686;2023-02-12T03:36:25;20.30;;;14.20;;
32964;SDS011;19317;48.226;11.686;2023-02-12T03:41:26;21.67;;;13.93;;
32964;SDS011;19317;48.226;11.686;2023-02-12T03:51:41;22.47;;;14.23;;
32964;SDS011;19317;48.226;11.686;2023-02-12T03:56:36;22.57;;;14.53;;
32964;SDS011;19317;48.226;11.686;2023-02-12T04:01:31;24.23;;;15.53;;
32964;SDS011;19317;48.226;11.686;2023-02-12T04:06:25;22.83;;;14.67;;
32964;SDS011;19317;48.226;11.686;2023-02-12T04:16:33;21.80;;;15.00;;
32964;SDS011;19317;48.226;11.686;2023-02-12T04:26:44;21.20;;;14.07;;
32964;SDS011;19317;48.226;11.686;2023-02-12T04:37:12;21.50;;;14.20;;
32964;SDS011;19317;48.226;11.686;2023-02-12T04:42:05;23.37;;;15.73;;
32964;SDS011;19317;48.226;11.686;2023-02-12T04:46:55;24.77;;;15.47;;
32964;SDS011;19317;48.226;11.686;2023-02-12T04:51:46;23.63;;;14.60;;
32964;SDS011;19317;48.226;11.686;2023-02-12T04:56:37;22.83;;;14.63;;
32964;SDS011;19317;48.226;11.686;2023-02-12T05:01:27;21.93;;;15.03;;
32964;SDS011;19317;48.226;11.686;2023-02-12T05:06:18;25.17;;;15.73;;
32964;SDS011;19317;48.226;11.686;2023-02-12T05:11:09;26.23;;;16.47;;
32964;SDS011;19317;48.226;11.686;2023-02-12T05:16:03;23.93;;;15.77;;
32964;SDS011;19317;48.226;11.686;2023-02-12T05:20:58;27.00;;;16.13;;
32964;SDS011;19317;48.226;11.686;2023-02-12T05:25:50;29.50;;;17.23;;
32964;SDS011;19317;48.226;11.686;2023-02-12T05:30:40;28.00;;;16.53;;
32964;SDS011;19317;48.226;11.686;2023-02-12T05:35:33;28.20;;;16.57;;
32964;SDS011;19317;48.226;11.686;2023-02-12T05:40:23;25.20;;;16.30;;
32964;SDS011;19317;48.226;11.686;2023-02-12T05:45:14;24.97;;;16.23;;
32964;SDS011;19317;48.226;11.686;2023-02-12T05:50:05;24.80;;;16.47;;
32964;SDS011;19317;48.226;11.686;2023-02-12T05:54:56;25.27;;;16.37;;
32964;SDS011;19317;48.226;11.686;2023-02-12T05:59:46;27.50;;;16.77;;
32964;SDS011;19317;48.226;11.686;2023-02-12T06:04:37;26.63;;;16.80;;
32964;SDS011;19317;48.226;11.686;2023-02-12T06:09:27;29.23;;;16.77;;
32964;SDS011;19317;48.226;11.686;2023-02-12T06:14:18;27.70;;;18.17;;
32964;SDS011;19317;48.226;11.686;2023-02-12T06:19:09;26.53;;;17.37;;
32964;SDS011;19317;48.226;11.686;2023-02-12T06:24:00;34.40;;;18.13;;
32964;SDS011;19317;48.226;11.686;2023-02-12T06:28:52;29.63;;;17.23;;
32964;SDS011;19317;48.226;11.686;2023-02-12T06:33:43;24.60;;;16.43;;
32964;SDS011;19317;48.226;11.686;2023-02-12T06:38:33;27.07;;;17.40;;
32964;SDS011;19317;48.226;11.686;2023-02-12T06:43:24;32.17;;;18.23;;
32964;SDS011;19317;48.226;11.686;2023-02-12T06:48:14;27.27;;;17.53;;
32964;SDS011;19317;48.226;11.686;2023-02-12T06:53:05;29.43;;;17.93;;
32964;SDS011;19317;48.226;11.686;2023-02-12T06:57:55;30.83;;;18.33;;
32964;SDS011;19317;48.226;11.686;2023-02-12T07:02:50;30.77;;;18.70;;
32964;SDS011;19317;48.226;11.686;2023-02-12T07:07:42;30.90;;;19.43;;
32964;SDS011;19317;48.226;11.686;2023-02-12T07:12:32;30.07;;;19.37;;
32964;SDS011;19317;48.226;11.686;2023-02-12T07:17:23;38.13;;;19.57;;
32964;SDS011;19317;48.226;11.686;2023-02-12T07:22:13;34.37;;;20.87;;
32964;SDS011;19317;48.226;11.686;2023-02-12T07:27:04;30.50;;;19.00;;
32964;SDS011;19317;48.226;11.686;2023-02-12T07:31:54;28.43;;;18.10;;
32964;SDS011;19317;48.226;11.686;2023-02-12T07:36:45;31.23;;;19.57;;
32964;SDS011;19317;48.226;11.686;2023-02-12T07:41:35;32.87;;;20.23;;
32964;SDS011;19317;48.226;11.686;2023-02-12T07:46:27;29.73;;;18.37;;
32964;SDS011;19317;48.226;11.686;2023-02-12T07:51:19;35.47;;;20.40;;
32964;SDS011;19317;48.226;11.686;2023-02-12T07:56:14;35.67;;;20.73;;
32964;SDS011;19317;48.226;11.686;2023-02-12T08:06:24;35.57;;;20.83;;
32964;SDS011;19317;48.226;11.686;2023-02-12T08:11:16;31.10;;;19.57;;
32964;SDS011;19317;48.226;11.686;2023-02-12T08:16:09;30.10;;;18.13;;
32964;SDS011;19317;48.226;11.686;2023-02-12T08:21:02;31.77;;;18.17;;
32964;SDS011;19317;48.226;11.686;2023-02-12T08:25:54;30.73;;;18.57;;
32964;SDS011;19317;48.226;11.686;2023-02-12T08:30:58;26.77;;;17.10;;
32964;SDS011;19317;48.226;11.686;2023-02-12T08:35:49;28.53;;;18.03;;
32964;SDS011;19317;48.226;11.686;2023-02-12T08:40:48;31.30;;;18.40;;
32964;SDS011;19317;48.226;11.686;2023-02-12T08:45:39;34.97;;;19.53;;
32964;SDS011;19317;48.226;11.686;2023-02-12T08:50:29;38.23;;;21.20;;
32964;SDS011;19317;48.226;11.686;2023-02-12T08:55:20;33.30;;;19.27;;
32964;SDS011;19317;48.226;11.686;2023-02-12T09:00:10;31.80;;;18.53;;
32964;SDS011;19317;48.226;11.686;2023-02-12T09:05:01;33.57;;;18.47;;
32964;SDS011;19317;48.226;11.686;2023-02-12T09:09:51;31.30;;;18.50;;
32964;SDS011;19317;48.226;11.686;2023-02-12T09:14:42;33.13;;;19.57;;
32964;SDS011;19317;48.226;11.686;2023-02-12T09:19:32;37.37;;;21.83;;
32964;SDS011;19317;48.226;11.686;2023-02-12T09:24:26;33.13;;;20.53;;
32964;SDS011;19317;48.226;11.686;2023-02-12T09:29:16;35.10;;;20.87;;
32964;SDS011;19317;48.226;11.686;2023-02-12T09:34:07;33.23;;;18.53;;
32964;SDS011;19317;48.226;11.686;2023-02-12T09:38:57;28.20;;;18.00;;
32964;SDS011;19317;48.226;11.686;2023-02-12T09:43:59;27.23;;;16.83;;
32964;SDS011;19317;48.226;11.686;2023-02-12T09:53:55;26.93;;;15.80;;
32964;SDS011;19317;48.226;11.686;2023-02-12T09:58:55;31.57;;;16.10;;
32964;SDS011;19317;48.226;11.686;2023-02-12T10:03:49;21.87;;;14.87;;
32964;SDS011;19317;48.226;11.686;2023-02-12T10:08:46;28.07;;;16.30;;
32964;SDS011;19317;48.226;11.686;2023-02-12T10:24:43;18.63;;;11.60;;
32964;SDS011;19317;48.226;11.686;2023-02-12T10:29:54;14.60;;;10.10;;
32964;SDS011;19317;48.226;11.686;2023-02-12T10:34:46;18.13;;;10.70;;
32964;SDS011;19317;48.226;11.686;2023-02-12T10:39:43;15.03;;;9.77;;
32964;SDS011;19317;48.226;11.686;2023-02-12T10:44:38;15.33;;;10.13;;
32964;SDS011;19317;48.226;11.686;2023-02-12T10:49:30;12.67;;;9.07;;
32964;SDS011;19317;48.226;11.686;2023-02-12T10:59:29;12.33;;;8.73;;
32964;SDS011;19317;48.226;11.686;2023-02-12T11:04:27;13.17;;;8.50;;
32964;SDS011;19317;48.226;11.686;2023-02-12T11:09:26;5.77;;;5.17;;
32964;SDS011;19317;48.226;11.686;2023-02-12T11:14:23;9.20;;;5.67;;
32964;SDS011;19317;48.226;11.686;2023-02-12T11:19:20;7.70;;;5.40;;
32964;SDS011;19317;48.226;11.686;2023-02-12T11:29:19;9.30;;;5.90;;
32964;SDS011;19317;48.226;11.686;2023-02-12T11:39:08;7.27;;;4.97;;
32964;SDS011;19317;48.226;11.686;2023-02-12T11:49:23;10.37;;;7.20;;
32964;SDS011;19317;48.226;11.686;2023-02-12T11:54:19;9.37;;;7.00;;
32964;SDS011;19317;48.226;11.686;2023-02-12T12:04:26;12.20;;;8.10;;
32964;SDS011;19317;48.226;11.686;2023-02-12T12:19:39;12.07;;;8.50;;
32964;SDS011;19317;48.226;11.686;2023-02-12T12:24:51;11.53;;;8.37;;
32964;SDS011;19317;48.226;11.686;2023-02-12T12:29:57;11.30;;;7.37;;
32964;SDS011;19317;48.226;11.686;2023-02-12T12:34:52;9.63;;;6.40;;
32964;SDS011;19317;48.226;11.686;2023-02-12T12:45:04;8.50;;;5.90;;
32964;SDS011;19317;48.226;11.686;2023-02-12T13:15:33;11.10;;;7.80;;
32964;SDS011;19317;48.226;11.686;2023-02-12T13:20:37;9.40;;;6.93;;
32964;SDS011;19317;48.226;11.686;2023-02-12T13:25:36;12.20;;;7.97;;
32964;SDS011;19317;48.226;11.686;2023-02-12T13:30:32;14.93;;;9.63;;
32964;SDS011;19317;48.226;11.686;2023-02-12T13:35:28;15.77;;;11.20;;
32964;SDS011;19317;48.226;11.686;2023-02-12T13:40:23;16.87;;;10.93;;
32964;SDS011;19317;48.226;11.686;2023-02-12T13:45:24;16.17;;;9.87;;
32964;SDS011;19317;48.226;11.686;2023-02-12T13:50:40;14.70;;;8.47;;
32964;SDS011;19317;48.226;11.686;2023-02-12T13:55:58;13.17;;;9.17;;
32964;SDS011;19317;48.226;11.686;2023-02-12T14:01:01;13.77;;;9.00;;
32964;SDS011;19317;48.226;11.686;2023-02-12T14:06:06;13.37;;;8.90;;
32964;SDS011;19317;48.226;11.686;2023-02-12T14:11:06;11.57;;;8.27;;
32964;SDS011;19317;48.226;11.686;2023-02-12T14:15:58;11.43;;;8.30;;
32964;SDS011;19317;48.226;11.686;2023-02-12T14:26:19;10.87;;;7.10;;
32964;SDS011;19317;48.226;11.686;2023-02-12T14:36:15;9.60;;;6.23;;
32964;SDS011;19317;48.226;11.686;2023-02-12T14:41:22;9.63;;;7.20;;
32964;SDS011;19317;48.226;11.686;2023-02-12T14:51:15;11.00;;;7.70;;
32964;SDS011;19317;48.226;11.686;2023-02-12T14:56:10;10.40;;;7.33;;
32964;SDS011;19317;48.226;11.686;2023-02-12T15:01:01;11.63;;;7.80;;
32964;SDS011;19317;48.226;11.686;2023-02-12T15:10:53;12.30;;;8.10;;
32964;SDS011;19317;48.226;11.686;2023-02-12T15:15:55;10.07;;;7.30;;
32964;SDS011;19317;48.226;11.686;2023-02-12T15:20:59;12.57;;;8.13;;
32964;SDS011;19317;48.226;11.686;2023-02-12T15:25:53;14.17;;;9.67;;
32964;SDS011;19317;48.226;11.686;2023-02-12T15:30:43;13.47;;;9.40;;
32964;SDS011;19317;48.226;11.686;2023-02-12T15:35:36;16.57;;;10.60;;
32964;SDS011;19317;48.226;11.686;2023-02-12T15:40:28;16.43;;;10.87;;
32964;SDS011;19317;48.226;11.686;2023-02-12T15:45:22;18.17;;;10.77;;
32964;SDS011;19317;48.226;11.686;2023-02-12T15:50:15;16.00;;;10.40;;
32964;SDS011;19317;48.226;11.686;2023-02-12T15:55:11;19.20;;;11.13;;
32964;SDS011;19317;48.226;11.686;2023-02-12T16:00:15;16.10;;;11.03;;
32964;SDS011;19317;48.226;11.686;2023-02-12T16:05:16;15.87;;;10.73;;
32964;SDS011;19317;48.226;11.686;2023-02-12T16:10:09;15.60;;;10.17;;
32964;SDS011;19317;48.226;11.686;2023-02-12T16:15:05;17.80;;;11.20;;
32964;SDS011;19317;48.226;11.686;2023-02-12T16:19:59;16.87;;;10.47;;
32964;SDS011;19317;48.226;11.686;2023-02-12T16:24:53;17.67;;;10.63;;
32964;SDS011;19317;48.226;11.686;2023-02-12T16:29:45;17.57;;;10.83;;
32964;SDS011;19317;48.226;11.686;2023-02-12T16:34:39;17.83;;;11.47;;
32964;SDS011;19317;48.226;11.686;2023-02-12T16:40:08;15.83;;;10.50;;
32964;SDS011;19317;48.226;11.686;2023-02-12T16:45:01;17.53;;;11.30;;
32964;SDS011;19317;48.226;11.686;2023-02-12T16:50:14;16.60;;;10.83;;
32964;SDS011;19317;48.226;11.686;2023-02-12T16:55:12;18.20;;;10.87;;
32964;SDS011;19317;48.226;11.686;2023-02-12T17:00:05;18.70;;;11.37;;
32964;SDS011;19317;48.226;11.686;2023-02-12T17:04:57;18.23;;;11.30;;
32964;SDS011;19317;48.226;11.686;2023-02-12T17:09:47;17.23;;;10.53;;
32964;SDS011;19317;48.226;11.686;2023-02-12T17:14:38;17.73;;;11.17;;
32964;SDS011;19317;48.226;11.686;2023-02-12T17:19:29;18.83;;;11.50;;
32964;SDS011;19317;48.226;11.686;2023-02-12T17:24:20;19.30;;;10.93;;
32964;SDS011;19317;48.226;11.686;2023-02-12T17:29:13;17.03;;;11.00;;
32964;SDS011;19317;48.226;11.686;2023-02-12T17:34:03;17.03;;;10.40;;
32964;SDS011;19317;48.226;11.686;2023-02-12T17:38:54;18.33;;;11.37;;
32964;SDS011;19317;48.226;11.686;2023-02-12T17:43:45;17.83;;;11.30;;
32964;SDS011;19317;48.226;11.686;2023-02-12T17:48:35;21.83;;;12.30;;
32964;SDS011;19317;48.226;11.686;2023-02-12T17:53:26;19.23;;;11.70;;
32964;SDS011;19317;48.226;11.686;2023-02-12T17:58:16;18.30;;;11.00;;
32964;SDS011;19317;48.226;11.686;2023-02-12T18:03:07;19.53;;;11.40;;
32964;SDS011;19317;48.226;11.686;2023-02-12T18:07:57;17.47;;;11.33;;
32964;SDS011;19317;48.226;11.686;2023-02-12T18:12:48;19.13;;;11.00;;
32964;SDS011;19317;48.226;11.686;2023-02-12T18:17:39;21.40;;;12.00;;
32964;SDS011;19317;48.226;11.686;2023-02-12T18:22:32;21.43;;;11.40;;
32964;SDS011;19317;48.226;11.686;2023-02-12T18:27:22;20.23;;;11.63;;
32964;SDS011;19317;48.226;11.686;2023-02-12T18:32:13;21.43;;;12.30;;
32964;SDS011;19317;48.226;11.686;2023-02-12T18:37:03;19.57;;;10.80;;
32964;SDS011;19317;48.226;11.686;2023-02-12T18:41:54;19.27;;;11.37;;
32964;SDS011;19317;48.226;11.686;2023-02-12T18:46:44;21.47;;;11.80;;
32964;SDS011;19317;48.226;11.686;2023-02-12T18:51:35;20.57;;;11.83;;
32964;SDS011;19317;48.226;11.686;2023-02-12T18:56:26;21.07;;;12.23;;
32964;SDS011;19317;48.226;11.686;2023-02-12T19:01:17;17.90;;;11.27;;
32964;SDS011;19317;48.226;11.686;2023-02-12T19:06:09;18.30;;;10.73;;
32964;SDS011;19317;48.226;11.686;2023-02-12T19:11:00;21.47;;;11.23;;
32964;SDS011;19317;48.226;11.686;2023-02-12T19:15:50;17.17;;;10.60;;
32964;SDS011;19317;48.226;11.686;2023-02-12T19:20:41;19.87;;;11.23;;
32964;SDS011;19317;48.226;11.686;2023-02-12T19:25:33;18.30;;;10.87;;
32964;SDS011;19317;48.226;11.686;2023-02-12T19:30:24;19.10;;;11.33;;
32964;SDS011;19317;48.226;11.686;2023-02-12T19:35:15;17.43;;;10.60;;
32964;SDS011;19317;48.226;11.686;2023-02-12T19:40:06;18.73;;;10.37;;
32964;SDS011;19317;48.226;11.686;2023-02-12T19:44:56;17.77;;;10.63;;
32964;SDS011;19317;48.226;11.686;2023-02-12T19:49:47;17.90;;;10.10;;
32964;SDS011;19317;48.226;11.686;2023-02-12T19:54:38;17.73;;;9.57;;
32964;SDS011;19317;48.226;11.686;2023-02-12T19:59:28;17.93;;;10.53;;
32964;SDS011;19317;48.226;11.686;2023-02-12T20:04:19;16.43;;;10.10;;
32964;SDS011;19317;48.226;11.686;2023-02-12T20:09:12;19.13;;;11.30;;
32964;SDS011;19317;48.226;11.686;2023-02-12T20:14:06;18.30;;;9.57;;
32964;SDS011;19317;48.226;11.686;2023-02-12T20:19:00;17.20;;;10.47;;
32964;SDS011;19317;48.226;11.686;2023-02-12T20:23:58;19.80;;;10.00;;
32964;SDS011;19317;48.226;11.686;2023-02-12T20:28:49;15.70;;;10.00;;
32964;SDS011;19317;48.226;11.686;2023-02-12T20:33:40;19.10;;;9.07;;
32964;SDS011;19317;48.226;11.686;2023-02-12T20:38:31;14.47;;;9.27;;
32964;SDS011;19317;48.226;11.686;2023-02-12T20:43:21;15.97;;;9.90;;
32964;SDS011;19317;48.226;11.686;2023-02-12T20:48:12;16.40;;;9.40;;
32964;SDS011;19317;48.226;11.686;2023-02-12T20:53:02;13.77;;;9.00;;
32964;SDS011;19317;48.226;11.686;2023-02-12T20:57:53;13.97;;;9.23;;
32964;SDS011;19317;48.226;11.686;2023-02-12T21:02:43;14.47;;;9.30;;
32964;SDS011;19317;48.226;11.686;2023-02-12T21:07:34;12.80;;;8.27;;
32964;SDS011;19317;48.226;11.686;2023-02-12T21:12:24;12.43;;;8.63;;
32964;SDS011;19317;48.226;11.686;2023-02-12T21:17:15;12.60;;;8.50;;
32964;SDS011;19317;48.226;11.686;2023-02-12T21:22:05;15.00;;;9.23;;
32964;SDS011;19317;48.226;11.686;2023-02-12T21:26:56;15.03;;;9.43;;
32964;SDS011;19317;48.226;11.686;2023-02-12T21:31:47;15.67;;;9.77;;
32964;SDS011;19317;48.226;11.686;2023-02-12T21:36:39;15.53;;;9.90;;
32964;SDS011;19317;48.226;11.686;2023-02-12T21:41:32;15.13;;;9.50;;
32964;SDS011;19317;48.226;11.686;2023-02-12T21:46:24;14.93;;;10.00;;
32964;SDS011;19317;48.226;11.686;2023-02-12T21:51:20;14.90;;;9.33;;
32964;SDS011;19317;48.226;11.686;2023-02-12T21:56:15;18.73;;;9.50;;
32964;SDS011;19317;48.226;11.686;2023-02-12T22:01:08;15.13;;;10.27;;
32964;SDS011;19317;48.226;11.686;2023-02-12T22:06:01;14.20;;;9.83;;
32964;SDS011;19317;48.226;11.686;2023-02-12T22:10:52;14.83;;;9.13;;
32964;SDS011;19317;48.226;11.686;2023-02-12T22:15:43;16.00;;;10.10;;
32964;SDS011;19317;48.226;11.686;2023-02-12T22:20:33;15.13;;;10.07;;
32964;SDS011;19317;48.226;11.686;2023-02-12T22:25:24;15.20;;;9.23;;
32964;SDS011;19317;48.226;11.686;2023-02-12T22:30:14;18.20;;;9.80;;
32964;SDS011;19317;48.226;11.686;2023-02-12T22:35:05;18.00;;;9.73;;
32964;SDS011;19317;48.226;11.686;2023-02-12T22:39:56;17.27;;;10.00;;
32964;SDS011;19317;48.226;11.686;2023-02-12T22:44:46;16.37;;;9.43;;
32964;SDS011;19317;48.226;11.686;2023-02-12T22:49:36;15.40;;;10.33;;
32964;SDS011;19317;48.226;11.686;2023-02-12T22:54:27;20.53;;;8.57;;
32964;SDS011;19317;48.226;11.686;2023-02-12T22:59:17;13.60;;;8.70;;
32964;SDS011;19317;48.226;11.686;2023-02-12T23:04:11;12.60;;;8.30;;
32964;SDS011;19317;48.226;11.686;2023-02-12T23:09:04;11.03;;;7.47;;
32964;SDS011;19317;48.226;11.686;2023-02-12T23:13:54;16.47;;;8.17;;
32964;SDS011;19317;48.226;11.686;2023-02-12T23:18:45;12.03;;;7.83;;
32964;SDS011;19317;48.226;11.686;2023-02-12T23:23:36;15.93;;;8.13;;
32964;SDS011;19317;48.226;11.686;2023-02-12T23:28:27;12.93;;;8.60;;
32964;SDS011;19317;48.226;11.686;2023-02-12T23:33:18;13.67;;;8.13;;
32964;SDS011;19317;48.226;11.686;2023-02-12T23:38:09;11.30;;;8.37;;
32964;SDS011;19317;48.226;11.686;2023-02-12T23:42:59;19.37;;;8.60;;
32964;SDS011;19317;48.226;11.686;2023-02-12T23:47:50;12.67;;;8.80;;
32964;SDS011;19317;48.226;11.686;2023-02-12T23:52:40;13.43;;;8.67;;
32964;SDS011;19317;48.226;11.686;2023-02-12T23:57:31;11.70;;;7.93;;
